createdAt,value
2023-05-18T00:02:24.120Z,13.00
2023-05-18T00:04:53.821Z,12.00
2023-05-18T00:07:21.623Z,12.00
2023-05-18T00:09:49.408Z,13.33
2023-05-18T00:12:16.337Z,13.00
2023-05-18T00:14:44.095Z,12.67
2023-05-18T00:17:11.930Z,11.33
2023-05-18T00:19:41.047Z,13.67
2023-05-18T00:22:09.807Z,15.00
2023-05-18T00:24:37.202Z,12.00
2023-05-18T00:27:05.060Z,13.67
2023-05-18T00:29:32.016Z,12.00
2023-05-18T00:32:00.938Z,12.60
2023-05-18T00:34:28.761Z,12.00
2023-05-18T00:36:56.471Z,15.67
2023-05-18T00:39:24.233Z,12.00
2023-05-18T00:41:51.971Z,11.67
2023-05-18T00:44:21.572Z,13.33
2023-05-18T00:46:50.565Z,13.00
2023-05-18T00:49:19.182Z,15.00
2023-05-18T00:51:47.110Z,16.00
2023-05-18T00:54:15.708Z,15.00
2023-05-18T00:56:46.860Z,13.67
2023-05-18T00:59:16.276Z,9.20
2023-05-18T01:01:46.298Z,15.00
2023-05-18T01:04:14.737Z,12.00
2023-05-18T01:06:44.005Z,14.00
2023-05-18T01:09:12.503Z,12.00
2023-05-18T01:12:00.408Z,14.83
2023-05-18T01:14:50.015Z,15.67
2023-05-18T01:17:54.581Z,13.00
2023-05-18T01:20:38.062Z,12.60
2023-05-18T01:23:45.072Z,13.67
2023-05-18T01:26:17.186Z,12.67
2023-05-18T01:28:47.212Z,12.33
2023-05-18T01:31:16.630Z,13.00
2023-05-18T01:33:46.540Z,15.00
2023-05-18T01:36:14.453Z,12.00
2023-05-18T01:38:44.312Z,12.00
2023-05-18T01:41:20.315Z,13.00
2023-05-18T01:44:26.762Z,11.00
2023-05-18T01:47:13.414Z,11.00
2023-05-18T01:49:54.895Z,14.60
2023-05-18T01:52:36.386Z,13.17
2023-05-18T01:55:05.704Z,13.00
2023-05-18T01:57:36.726Z,13.80
2023-05-18T02:00:08.055Z,12.00
2023-05-18T02:02:35.327Z,15.00
2023-05-18T02:05:03.206Z,13.67
2023-05-18T02:07:30.152Z,14.00
2023-05-18T02:09:58.915Z,12.00
2023-05-18T02:12:26.709Z,11.33
2023-05-18T02:14:55.735Z,13.40
2023-05-18T02:17:26.209Z,14.33
2023-05-18T02:19:54.069Z,12.33
2023-05-18T02:22:23.419Z,11.00
2023-05-18T02:24:54.208Z,13.00
2023-05-18T02:27:23.727Z,13.00
2023-05-18T02:29:52.033Z,14.33
2023-05-18T02:32:21.769Z,16.33
2023-05-18T02:34:53.103Z,9.00
2023-05-18T02:37:23.340Z,12.33
2023-05-18T02:39:51.344Z,13.67
2023-05-18T02:42:18.219Z,10.00
2023-05-18T02:44:46.152Z,13.33
2023-05-18T02:47:15.076Z,12.20
2023-05-18T02:49:42.746Z,13.00
2023-05-18T02:52:09.700Z,15.50
2023-05-18T02:54:39.409Z,13.00
2023-05-18T02:57:07.275Z,13.33
2023-05-18T02:59:35.015Z,12.00
2023-05-18T03:02:02.024Z,12.00
2023-05-18T03:04:29.688Z,14.00
2023-05-18T03:06:57.490Z,10.00
2023-05-18T03:09:25.283Z,12.00
2023-05-18T03:11:56.022Z,13.00
2023-05-18T03:14:23.799Z,12.67
2023-05-18T03:16:57.907Z,10.33
2023-05-18T03:19:27.565Z,9.67
2023-05-18T03:21:55.553Z,15.33
2023-05-18T03:24:26.611Z,15.67
2023-05-18T03:26:55.362Z,12.67
2023-05-18T03:29:22.353Z,15.50
2023-05-18T03:31:50.508Z,10.67
2023-05-18T03:34:18.384Z,12.67
2023-05-18T03:36:47.538Z,14.67
2023-05-18T03:39:15.313Z,16.67
2023-05-18T03:41:43.188Z,13.67
2023-05-18T03:44:11.049Z,12.67
2023-05-18T03:46:38.905Z,13.00
2023-05-18T03:49:08.001Z,12.67
2023-05-18T03:51:35.307Z,13.50
2023-05-18T03:54:03.063Z,13.33
2023-05-18T03:56:32.605Z,16.67
2023-05-18T03:59:02.220Z,12.33
2023-05-18T04:01:33.056Z,14.67
2023-05-18T04:04:01.377Z,14.00
2023-05-18T04:06:29.261Z,14.67
2023-05-18T04:08:56.323Z,17.00
2023-05-18T04:11:24.069Z,15.33
2023-05-18T04:13:52.308Z,22.50
2023-05-18T04:16:20.166Z,14.67
2023-05-18T04:18:48.653Z,16.67
2023-05-18T04:21:16.232Z,23.00
2023-05-18T04:23:45.311Z,32.50
2023-05-18T04:26:14.182Z,25.00
2023-05-18T04:28:43.364Z,22.00
2023-05-18T04:31:14.658Z,15.00
2023-05-18T04:33:41.851Z,14.00
2023-05-18T04:36:10.900Z,12.60
2023-05-18T04:38:39.489Z,15.33
2023-05-18T04:41:09.461Z,22.00
2023-05-18T04:43:36.830Z,16.00
2023-05-18T04:46:04.319Z,15.00
2023-05-18T04:48:32.359Z,14.00
2023-05-18T04:51:00.218Z,12.33
2023-05-18T04:53:28.001Z,13.00
2023-05-18T04:55:56.864Z,11.33
2023-05-18T04:58:24.666Z,14.33
2023-05-18T05:00:52.836Z,14.00
2023-05-18T05:03:22.746Z,11.67
2023-05-18T05:05:50.626Z,10.33
2023-05-18T05:08:17.659Z,13.50
2023-05-18T05:10:45.583Z,13.00
2023-05-18T05:13:12.469Z,12.00
2023-05-18T05:15:39.584Z,13.00
2023-05-18T05:18:06.588Z,10.50
2023-05-18T05:20:34.357Z,10.33
2023-05-18T05:23:03.139Z,10.60
2023-05-18T05:25:32.185Z,10.40
2023-05-18T05:28:00.035Z,10.33
2023-05-18T05:30:27.220Z,10.00
2023-05-18T05:32:55.030Z,10.00
2023-05-18T05:35:22.051Z,10.00
2023-05-18T05:37:51.698Z,10.00
2023-05-18T05:40:19.546Z,11.00
2023-05-18T05:42:47.575Z,10.00
2023-05-18T05:45:17.113Z,7.00
2023-05-18T05:47:44.377Z,9.00
2023-05-18T05:50:11.745Z,9.00
2023-05-18T05:52:38.639Z,8.00
2023-05-18T05:55:05.987Z,9.50
2023-05-18T05:57:33.783Z,7.00
2023-05-18T06:00:05.151Z,11.33
2023-05-18T06:02:32.250Z,11.00
2023-05-18T06:04:59.180Z,8.00
2023-05-18T06:07:26.921Z,9.67
2023-05-18T06:09:54.814Z,18.00
2023-05-18T06:12:22.801Z,18.67
2023-05-18T06:14:49.799Z,7.00
2023-05-18T06:17:18.641Z,10.60
2023-05-18T06:19:46.320Z,14.00
2023-05-18T06:22:13.285Z,22.00
2023-05-18T06:24:41.209Z,11.33
2023-05-18T06:27:09.326Z,12.67
2023-05-18T06:29:37.203Z,12.00
2023-05-18T06:32:04.495Z,29.00
2023-05-18T06:34:33.266Z,18.33
2023-05-18T06:37:01.207Z,12.67
2023-05-18T06:39:29.645Z,20.50
2023-05-18T06:41:59.368Z,15.33
2023-05-18T06:44:26.793Z,11.00
2023-05-18T06:46:54.608Z,8.67
2023-05-18T06:49:22.420Z,6.50
2023-05-18T06:51:49.423Z,6.50
2023-05-18T06:54:16.499Z,9.00
2023-05-18T06:56:44.205Z,10.67
2023-05-18T06:59:11.031Z,6.00
2023-05-18T07:01:38.517Z,7.00
2023-05-18T07:04:06.510Z,6.75
2023-05-18T07:06:33.612Z,6.00
2023-05-18T07:09:03.546Z,6.00
2023-05-18T07:11:30.645Z,8.50
2023-05-18T07:13:58.500Z,7.00
2023-05-18T07:16:28.276Z,10.00
2023-05-18T07:18:59.040Z,6.50
2023-05-18T07:21:26.621Z,11.00
2023-05-18T07:23:54.379Z,6.25
2023-05-18T07:26:22.718Z,5.50
2023-05-18T07:28:51.744Z,7.25
2023-05-18T07:31:21.816Z,11.00
2023-05-18T07:33:49.049Z,5.00
2023-05-18T07:36:16.267Z,5.00
2023-05-18T07:38:44.290Z,11.33
2023-05-18T07:41:12.144Z,20.00
2023-05-18T07:43:39.870Z,14.67
2023-05-18T07:46:07.786Z,11.67
2023-05-18T07:48:34.673Z,11.50
2023-05-18T07:51:04.688Z,11.00
2023-05-18T07:53:34.941Z,9.50
2023-05-18T07:56:01.852Z,9.00
2023-05-18T07:58:28.773Z,8.00
2023-05-18T08:00:56.545Z,8.50
2023-05-18T08:03:23.885Z,7.00
2023-05-18T08:05:50.999Z,7.00
2023-05-18T08:08:18.859Z,7.00
2023-05-18T08:10:45.866Z,10.00
2023-05-18T08:13:13.536Z,5.25
2023-05-18T08:15:42.991Z,6.00
2023-05-18T08:18:10.250Z,11.00
2023-05-18T08:20:37.113Z,6.00
2023-05-18T08:23:04.161Z,7.00
2023-05-18T08:25:32.207Z,7.00
2023-05-18T08:28:00.186Z,12.67
2023-05-18T08:30:29.044Z,6.60
2023-05-18T08:32:57.073Z,7.00
2023-05-18T08:35:24.261Z,5.00
2023-05-18T08:37:51.936Z,5.75
2023-05-18T08:40:19.920Z,8.50
2023-05-18T08:42:58.757Z,6.00
2023-05-18T08:45:32.957Z,6.33
2023-05-18T08:48:01.696Z,5.00
2023-05-18T08:50:32.935Z,5.00
2023-05-18T08:53:04.978Z,5.00
2023-05-18T08:55:37.272Z,6.00
2023-05-18T08:58:07.768Z,6.75
2023-05-18T09:00:36.457Z,4.00
2023-05-18T09:03:06.122Z,6.00
2023-05-18T09:05:34.660Z,5.00
2023-05-18T09:08:03.981Z,3.00
2023-05-18T09:10:33.923Z,5.25
2023-05-18T09:13:05.495Z,3.00
2023-05-18T09:15:35.488Z,5.25
2023-05-18T09:18:04.114Z,5.75
2023-05-18T09:20:32.486Z,5.00
2023-05-18T09:23:00.176Z,3.00
2023-05-18T09:25:30.369Z,3.00
2023-05-18T09:27:58.277Z,2.25
2023-05-18T09:30:26.001Z,3.00
2023-05-18T09:32:53.545Z,2.50
2023-05-18T09:35:22.996Z,3.00
2023-05-18T09:37:53.228Z,3.00
2023-05-18T09:40:29.963Z,2.75
2023-05-18T09:42:57.836Z,5.00
2023-05-18T09:45:26.916Z,4.75
2023-05-18T09:47:54.116Z,5.50
2023-05-18T09:50:26.313Z,3.00
2023-05-18T09:52:54.925Z,3.00
2023-05-18T09:55:21.823Z,3.00
2023-05-18T09:57:52.031Z,3.00
2023-05-18T10:00:24.782Z,2.00
2023-05-18T10:02:53.086Z,3.00
2023-05-18T10:05:21.361Z,5.00
2023-05-18T10:07:50.823Z,4.00
2023-05-18T10:10:20.903Z,5.50
2023-05-18T10:12:50.420Z,7.00
2023-05-18T10:15:20.030Z,7.00
2023-05-18T10:17:48.514Z,4.00
2023-05-18T10:20:20.866Z,3.00
2023-05-18T10:22:49.603Z,3.00
2023-05-18T10:25:21.865Z,3.00
2023-05-18T10:27:56.583Z,3.00
2023-05-18T10:30:23.783Z,3.50
2023-05-18T10:32:52.775Z,3.00
2023-05-18T10:35:21.868Z,4.00
2023-05-18T10:37:50.885Z,6.00
2023-05-18T10:40:23.077Z,6.00
2023-05-18T10:42:52.387Z,5.00
2023-05-18T10:45:20.036Z,6.50
2023-05-18T10:47:48.508Z,6.00
2023-05-18T10:50:16.806Z,6.50
2023-05-18T10:52:45.856Z,7.00
2023-05-18T10:55:13.255Z,6.50
2023-05-18T10:57:46.712Z,7.00
2023-05-18T11:00:14.554Z,6.00
2023-05-18T11:02:43.103Z,6.00
2023-05-18T11:05:12.049Z,6.00
2023-05-18T11:07:39.918Z,7.00
2023-05-18T11:10:11.595Z,7.00
2023-05-18T11:12:38.953Z,3.00
2023-05-18T11:15:06.440Z,4.00
2023-05-18T11:17:33.963Z,7.50
2023-05-18T11:20:06.636Z,4.00
2023-05-18T11:22:52.910Z,4.00
2023-05-18T11:25:28.588Z,6.50
2023-05-18T11:28:02.373Z,5.00
2023-05-18T11:30:31.037Z,12.00
2023-05-18T11:33:17.720Z,13.67
2023-05-18T11:36:04.393Z,4.00
2023-05-18T11:39:05.146Z,21.00
2023-05-18T11:41:33.136Z,19.00
2023-05-18T11:44:12.076Z,7.00
2023-05-18T11:47:05.249Z,19.00
2023-05-18T11:49:42.819Z,10.50
2023-05-18T11:52:12.589Z,8.00
2023-05-18T11:54:46.981Z,8.00
2023-05-18T11:57:15.743Z,4.00
2023-05-18T11:59:45.128Z,5.00
2023-05-18T12:02:18.736Z,4.00
2023-05-18T12:04:50.911Z,7.20
2023-05-18T12:07:19.736Z,4.00
2023-05-18T12:09:48.033Z,6.00
2023-05-18T12:12:20.258Z,5.00
2023-05-18T12:15:03.558Z,7.00
2023-05-18T12:17:46.534Z,8.00
2023-05-18T12:20:19.166Z,8.50
2023-05-18T12:22:54.059Z,7.71
2023-05-18T12:25:23.639Z,8.00
2023-05-18T12:27:52.818Z,6.00
2023-05-18T12:30:22.482Z,10.00
2023-05-18T12:32:56.682Z,5.80
2023-05-18T12:35:26.980Z,9.00
2023-05-18T12:38:00.743Z,6.00
2023-05-18T12:40:44.858Z,9.20
2023-05-18T12:43:13.805Z,6.40
2023-05-18T12:45:45.191Z,8.00
2023-05-18T12:48:13.558Z,7.00
2023-05-18T12:50:53.991Z,8.00
2023-05-18T12:53:21.169Z,8.00
2023-05-18T12:55:59.782Z,9.00
2023-05-18T12:58:26.722Z,4.00
2023-05-18T13:00:54.405Z,10.00
2023-05-18T13:03:22.470Z,11.00
2023-05-18T13:06:07.611Z,9.00
2023-05-18T13:08:36.102Z,9.00
2023-05-18T13:11:13.663Z,8.60
2023-05-18T13:14:22.380Z,12.20
2023-05-18T13:16:52.149Z,9.00
2023-05-18T13:19:22.697Z,10.00
2023-05-18T13:21:56.986Z,10.50
2023-05-18T13:24:25.851Z,7.00
2023-05-18T13:26:53.694Z,10.00
2023-05-18T13:29:21.664Z,9.00
2023-05-18T13:31:49.506Z,10.67
2023-05-18T13:34:17.800Z,11.00
2023-05-18T13:36:44.707Z,9.00
2023-05-18T13:39:13.551Z,10.60
2023-05-18T13:41:41.467Z,11.00
2023-05-18T13:44:08.308Z,9.00
2023-05-18T13:46:38.296Z,11.40
2023-05-18T13:49:07.095Z,10.20
2023-05-18T13:51:36.503Z,9.83
2023-05-18T13:54:03.869Z,11.00
2023-05-18T13:56:30.843Z,9.00
2023-05-18T13:58:59.811Z,10.60
2023-05-18T14:01:27.491Z,7.00
2023-05-18T14:03:54.397Z,8.00
2023-05-18T14:06:23.413Z,10.00
2023-05-18T14:08:51.109Z,10.00
2023-05-18T14:11:21.679Z,10.67
2023-05-18T14:13:51.290Z,9.83
2023-05-18T14:16:21.022Z,10.00
2023-05-18T14:18:49.860Z,9.00
2023-05-18T14:21:16.855Z,9.50
2023-05-18T14:23:48.497Z,9.17
2023-05-18T14:26:16.696Z,9.33
2023-05-18T14:28:46.549Z,9.83
2023-05-18T14:31:14.294Z,11.00
2023-05-18T14:33:43.040Z,8.60
2023-05-18T14:38:38.132Z,7.00
2023-05-18T14:41:06.092Z,7.67
2023-05-18T14:43:32.975Z,7.00
2023-05-18T14:46:08.167Z,7.00
2023-05-18T14:48:35.926Z,6.00
2023-05-18T14:51:04.922Z,9.00
2023-05-18T14:53:32.628Z,9.00
2023-05-18T14:56:04.480Z,9.20
2023-05-18T14:58:33.206Z,5.20
2023-05-18T15:01:01.066Z,9.67
2023-05-18T15:03:28.971Z,12.00
2023-05-18T15:05:57.040Z,12.33
2023-05-18T15:08:25.812Z,12.33
2023-05-18T15:10:54.100Z,12.00
2023-05-18T15:13:22.053Z,22.00
2023-05-18T15:15:51.063Z,31.33
2023-05-18T15:18:19.842Z,32.33
2023-05-18T15:20:48.735Z,31.33
2023-05-18T15:23:16.932Z,22.00
2023-05-18T15:25:44.931Z,24.00
2023-05-18T15:28:13.884Z,11.67
2023-05-18T15:30:42.476Z,22.00
2023-05-18T15:33:10.673Z,7.67
2023-05-18T15:35:38.755Z,10.00
2023-05-18T15:38:07.564Z,9.00
2023-05-18T15:40:36.800Z,9.20
2023-05-18T15:43:03.839Z,5.50
2023-05-18T15:45:32.542Z,4.80
2023-05-18T15:47:59.652Z,5.00
2023-05-18T15:50:27.584Z,5.00
2023-05-18T15:52:54.457Z,5.00
2023-05-18T15:55:21.453Z,5.00
2023-05-18T15:57:48.417Z,4.00
2023-05-18T16:00:15.859Z,6.00
2023-05-18T16:02:42.646Z,6.00
2023-05-18T16:05:09.741Z,7.00
2023-05-18T16:07:37.522Z,5.50
2023-05-18T16:10:06.700Z,4.50
2023-05-18T16:12:34.589Z,9.00
2023-05-18T16:15:01.436Z,3.00
2023-05-18T16:17:28.432Z,8.00
2023-05-18T16:19:58.185Z,8.17
2023-05-18T16:22:26.104Z,8.00
2023-05-18T16:24:54.905Z,8.00
2023-05-18T16:27:21.746Z,6.00
2023-05-18T16:29:48.838Z,8.00
2023-05-18T16:32:15.921Z,9.00
2023-05-18T16:34:44.959Z,7.20
2023-05-18T16:37:15.570Z,7.14
2023-05-18T16:39:45.904Z,6.00
2023-05-18T16:42:13.684Z,8.00
2023-05-18T16:44:42.446Z,10.00
2023-05-18T16:47:09.330Z,10.50
2023-05-18T16:49:36.284Z,7.00
2023-05-18T16:52:05.324Z,22.00
2023-05-18T16:54:32.464Z,8.50
2023-05-18T16:57:00.149Z,9.67
2023-05-18T16:59:27.012Z,7.50
2023-05-18T17:01:53.915Z,6.00
2023-05-18T17:04:21.704Z,10.00
2023-05-18T17:06:52.286Z,8.00
2023-05-18T17:09:20.891Z,5.00
2023-05-18T17:11:48.844Z,7.00
2023-05-18T17:14:15.780Z,8.00
2023-05-18T17:16:42.874Z,7.00
2023-05-18T17:19:09.919Z,7.00
2023-05-18T17:21:38.713Z,8.60
2023-05-18T17:24:05.843Z,7.00
2023-05-18T17:26:33.415Z,5.00
2023-05-18T17:29:02.139Z,6.20
2023-05-18T17:31:29.256Z,8.00
2023-05-18T17:33:56.448Z,9.00
2023-05-18T17:36:23.393Z,5.00
2023-05-18T17:38:51.265Z,7.33
2023-05-18T17:41:20.018Z,9.00
2023-05-18T17:43:46.883Z,7.00
2023-05-18T17:46:14.034Z,7.00
2023-05-18T17:48:41.936Z,10.00
2023-05-18T17:51:09.728Z,11.00
2023-05-18T17:53:42.143Z,10.33
2023-05-18T17:56:11.123Z,10.00
2023-05-18T17:58:40.761Z,11.00
2023-05-18T18:01:10.718Z,9.40
2023-05-18T18:03:39.791Z,10.00
2023-05-18T18:06:08.039Z,9.00
2023-05-18T18:08:37.991Z,10.00
2023-05-18T18:11:09.053Z,8.80
2023-05-18T18:13:38.095Z,10.00
2023-05-18T18:16:05.388Z,8.50
2023-05-18T18:18:36.196Z,10.33
2023-05-18T18:21:08.812Z,9.60
2023-05-18T18:23:37.848Z,13.67
2023-05-18T18:26:06.586Z,9.33
2023-05-18T18:28:35.009Z,12.50
2023-05-18T18:31:03.640Z,15.00
2023-05-18T18:33:32.874Z,11.33
2023-05-18T18:36:01.101Z,14.00
2023-05-18T18:38:29.016Z,10.00
2023-05-18T18:41:01.835Z,15.00
2023-05-18T18:43:30.106Z,14.50
2023-05-18T18:45:58.102Z,15.00
2023-05-18T18:48:25.687Z,9.00
2023-05-18T18:50:53.838Z,13.00
2023-05-18T18:53:20.901Z,13.00
2023-05-18T18:55:49.233Z,12.00
2023-05-18T18:58:16.448Z,14.00
2023-05-18T19:00:44.664Z,13.33
2023-05-18T19:03:15.276Z,13.67
2023-05-18T19:05:42.589Z,12.50
2023-05-18T19:08:12.221Z,13.00
2023-05-18T19:10:39.371Z,12.00
2023-05-18T19:13:07.169Z,13.00
2023-05-18T19:15:36.738Z,11.80
2023-05-18T19:18:04.241Z,12.50
2023-05-18T19:20:31.341Z,10.00
2023-05-18T19:22:59.106Z,9.00
2023-05-18T19:25:26.570Z,9.00
2023-05-18T19:27:54.278Z,9.00
2023-05-18T19:30:22.915Z,7.00
2023-05-18T19:35:33.829Z,8.40
2023-05-18T19:38:02.831Z,8.80
2023-05-18T19:40:31.550Z,7.80
2023-05-18T19:42:59.980Z,8.67
2023-05-18T19:45:28.965Z,9.40
2023-05-18T19:47:55.978Z,9.00
2023-05-18T19:50:22.937Z,8.00
2023-05-18T19:52:50.177Z,9.50
2023-05-18T19:55:17.778Z,7.00
2023-05-18T19:57:48.381Z,6.00
2023-05-18T20:00:15.613Z,9.00
2023-05-18T20:02:42.421Z,8.00
2023-05-18T20:05:12.780Z,9.00
2023-05-18T20:07:42.517Z,11.67
2023-05-18T20:10:11.813Z,8.00
2023-05-18T20:12:38.705Z,8.00
2023-05-18T20:15:08.894Z,9.80
2023-05-18T20:17:37.052Z,7.50
2023-05-18T20:20:06.289Z,13.00
2023-05-18T20:22:34.021Z,11.67
2023-05-18T20:25:20.089Z,14.00
2023-05-18T20:27:47.851Z,17.33
2023-05-18T20:30:15.470Z,8.33
2023-05-18T20:32:43.362Z,16.00
2023-05-18T20:35:10.296Z,9.00
2023-05-18T20:37:41.536Z,8.33
2023-05-18T20:40:10.757Z,11.60
2023-05-18T20:42:41.811Z,12.00
2023-05-18T20:45:09.636Z,6.50
2023-05-18T20:47:36.788Z,11.00
2023-05-18T20:50:06.047Z,6.40
2023-05-18T20:52:32.817Z,6.00
2023-05-18T20:54:59.761Z,9.00
2023-05-18T20:57:28.446Z,9.00
2023-05-18T20:59:55.671Z,9.00
2023-05-18T21:02:22.573Z,7.50
2023-05-18T21:07:38.066Z,6.00
2023-05-18T21:10:05.499Z,8.00
2023-05-18T21:12:32.439Z,6.50
2023-05-18T21:14:59.575Z,8.00
2023-05-18T21:17:26.645Z,7.00
2023-05-18T21:19:54.478Z,7.25
2023-05-18T21:22:21.463Z,7.00
2023-05-18T21:24:48.278Z,6.50
2023-05-18T21:27:15.390Z,7.50
2023-05-18T21:29:43.193Z,9.00
2023-05-18T21:32:10.171Z,8.00
2023-05-18T21:34:37.077Z,7.00
2023-05-18T21:37:05.069Z,7.00
2023-05-18T21:39:32.212Z,7.00
2023-05-18T21:41:59.161Z,8.00
2023-05-18T21:44:29.541Z,6.14
2023-05-18T21:46:58.057Z,8.00
2023-05-18T21:49:28.148Z,6.20
2023-05-18T21:51:56.223Z,8.00
2023-05-18T21:54:26.517Z,7.20
2023-05-18T21:56:53.449Z,6.50
2023-05-18T21:59:20.564Z,8.00
2023-05-18T22:01:47.672Z,9.00
2023-05-18T22:04:14.539Z,7.00
2023-05-18T22:06:41.585Z,8.00
2023-05-18T22:09:10.295Z,7.50
2023-05-18T22:11:38.122Z,5.00
2023-05-18T22:14:05.028Z,7.00
2023-05-18T22:16:32.008Z,6.00
2023-05-18T22:18:59.055Z,7.50
2023-05-18T22:21:27.508Z,8.33
2023-05-18T22:23:56.236Z,8.40
2023-05-18T22:26:22.976Z,8.00
2023-05-18T22:28:49.942Z,9.00
2023-05-18T22:31:17.653Z,10.33
2023-05-18T22:33:44.573Z,9.00
2023-05-18T22:36:13.361Z,8.60
2023-05-18T22:38:43.993Z,7.00
2023-05-18T22:41:10.911Z,9.00
2023-05-18T22:43:37.746Z,7.50
2023-05-18T22:46:06.974Z,8.40
2023-05-18T22:48:36.212Z,8.60
2023-05-18T22:51:06.075Z,8.33
2023-05-18T22:53:34.023Z,2.25
2023-05-18T22:56:01.111Z,8.00
2023-05-18T22:58:28.041Z,9.00
2023-05-18T23:00:57.317Z,9.80
2023-05-18T23:03:24.115Z,8.00
2023-05-18T23:05:51.163Z,9.00
2023-05-18T23:08:20.526Z,10.00
2023-05-18T23:10:50.780Z,7.20
2023-05-18T23:13:19.720Z,7.80
2023-05-18T23:15:48.940Z,11.67
2023-05-18T23:18:16.771Z,14.00
2023-05-18T23:20:45.619Z,11.67
2023-05-18T23:23:13.433Z,12.00
2023-05-18T23:25:41.308Z,12.33
2023-05-18T23:28:08.439Z,11.00
2023-05-18T23:30:35.629Z,12.00
2023-05-18T23:33:06.820Z,11.00
2023-05-18T23:35:39.006Z,11.33
2023-05-18T23:38:10.654Z,11.00
2023-05-18T23:40:38.429Z,13.00
2023-05-18T23:43:06.306Z,9.00
2023-05-18T23:45:34.343Z,11.00
2023-05-18T23:48:03.271Z,12.00
2023-05-18T23:50:31.603Z,11.33
2023-05-18T23:53:03.260Z,11.00
2023-05-18T23:55:35.292Z,12.00
2023-05-18T23:58:02.903Z,9.50
